Time;durP1;ratioP1;P1;durP2;ratioP2;P2;SDS_P1;SDS_P2;PMS_P1;PMS_P2;Temp;Humidity;BMP_temperature;BMP_pressure;BME280_temperature;BME280_humidity;BME280_pressure;Samples;Min_cycle;Max_cycle;Signal;HPM_P1;HPM_P2
2022/03/22 00:00:57;;;;;;;10.83;7.97;;;12.00;92.40;;;;;;5069030;28;20542;-48
2022/03/22 00:03:25;;;;;;;8.60;7.80;;;12.00;92.40;;;;;;5071676;28;20465;-47
2022/03/22 00:05:58;;;;;;;9.07;7.80;;;12.00;92.40;;;;;;5071315;28;20806;-47
2022/03/22 00:08:26;;;;;;;9.03;8.00;;;12.00;92.30;;;;;;5069790;28;20557;-47
2022/03/22 00:10:55;;;;;;;9.93;7.90;;;12.00;92.20;;;;;;5064291;28;20486;-49
2022/03/22 00:13:23;;;;;;;8.70;7.60;;;12.00;92.30;;;;;;5051600;28;20498;-48
2022/03/22 00:15:53;;;;;;;9.97;8.00;;;12.00;92.40;;;;;;5059675;28;20538;-48
2022/03/22 00:18:43;;;;;;;11.60;8.90;;;12.00;92.30;;;;;;5063058;28;20461;-47
2022/03/22 00:21:11;;;;;;;9.67;7.90;;;12.00;92.30;;;;;;5071043;28;20793;-47
2022/03/22 00:23:39;;;;;;;12.73;9.80;;;12.00;92.30;;;;;;5070546;28;20876;-48
2022/03/22 00:26:07;;;;;;;8.30;7.30;;;12.00;92.10;;;;;;5053352;28;20431;-46
2022/03/22 00:28:35;;;;;;;8.87;8.07;;;12.00;92.30;;;;;;5066645;28;20818;-46
2022/03/22 00:31:03;;;;;;;10.33;8.57;;;12.00;92.30;;;;;;5070585;28;20556;-47
2022/03/22 00:33:32;;;;;;;9.20;8.17;;;12.00;92.30;;;;;;5070146;28;21003;-48
2022/03/22 00:36:01;;;;;;;8.87;7.97;;;11.90;92.30;;;;;;5071460;28;20846;-48
2022/03/22 00:38:29;;;;;;;9.53;8.40;;;12.00;92.20;;;;;;5069648;28;20485;-49
2022/03/22 00:40:57;;;;;;;10.47;8.43;;;11.90;92.20;;;;;;5071043;28;20522;-49
2022/03/22 00:43:44;;;;;;;8.10;7.30;;;11.90;92.30;;;;;;5070324;28;20519;-48
2022/03/22 00:46:31;;;;;;;8.60;7.57;;;11.90;92.40;;;;;;5070350;28;20843;-48
2022/03/22 00:49:02;;;;;;;10.37;8.73;;;12.00;92.40;;;;;;5070391;28;20462;-48
2022/03/22 00:51:31;;;;;;;8.03;7.10;;;11.90;92.30;;;;;;5069766;28;20512;-48
2022/03/22 00:54:02;;;;;;;7.30;6.60;;;11.90;92.40;;;;;;5051960;28;20527;-48
2022/03/22 00:56:30;;;;;;;8.90;7.47;;;11.90;92.30;;;;;;5063621;28;20547;-48
2022/03/22 01:01:41;;;;;;;7.43;6.73;;;11.90;92.30;;;;;;5050371;28;20449;-46
2022/03/22 01:04:10;;;;;;;9.13;8.20;;;11.90;92.30;;;;;;5070106;28;20466;-47
2022/03/22 01:06:39;;;;;;;9.27;8.27;;;11.90;92.30;;;;;;5069646;28;20474;-49
2022/03/22 01:09:07;;;;;;;9.90;8.20;;;11.90;92.30;;;;;;5069975;28;20493;-47
2022/03/22 01:11:36;;;;;;;10.13;7.90;;;11.90;92.40;;;;;;5070533;28;20465;-47
2022/03/22 01:14:07;;;;;;;10.23;8.60;;;11.90;92.30;;;;;;5069862;28;21131;-47
2022/03/22 01:16:35;;;;;;;9.13;8.00;;;11.90;92.30;;;;;;5051973;28;20438;-48
2022/03/22 01:19:03;;;;;;;10.20;8.17;;;11.90;92.30;;;;;;5050577;28;21047;-49
2022/03/22 01:21:31;;;;;;;9.50;8.10;;;11.90;92.20;;;;;;5052427;28;22509;-47
2022/03/22 01:24:06;;;;;;;7.80;7.00;;;11.90;92.30;;;;;;5069248;28;20519;-47
2022/03/22 01:26:34;;;;;;;8.10;7.20;;;11.90;92.30;;;;;;5056958;28;20430;-47
2022/03/22 01:29:03;;;;;;;8.07;7.37;;;11.90;92.40;;;;;;5050068;28;20548;-48
2022/03/22 01:31:32;;;;;;;8.27;7.40;;;11.90;92.30;;;;;;5059863;28;20475;-48
2022/03/22 01:34:00;;;;;;;8.53;7.57;;;11.90;92.50;;;;;;5069633;28;20466;-49
2022/03/22 01:36:31;;;;;;;8.80;7.90;;;11.90;92.40;;;;;;5059762;28;20926;-47
2022/03/22 01:39:01;;;;;;;9.63;8.00;;;11.90;92.40;;;;;;5069436;28;20550;-47
2022/03/22 01:41:47;;;;;;;9.13;8.23;;;11.90;92.40;;;;;;5063673;28;20508;-47
2022/03/22 01:44:15;;;;;;;7.70;7.00;;;11.90;92.40;;;;;;5068256;28;20818;-50
2022/03/22 01:46:45;;;;;;;7.57;6.80;;;11.90;92.40;;;;;;5070288;28;20462;-48
2022/03/22 01:49:13;;;;;;;10.17;7.60;;;11.90;92.40;;;;;;5068758;28;20457;-49
2022/03/22 01:51:43;;;;;;;6.50;5.63;;;11.90;92.30;;;;;;5053326;28;20466;-48
2022/03/22 01:54:14;;;;;;;10.63;7.57;;;11.90;92.40;;;;;;5069047;28;20509;-49
2022/03/22 01:56:42;;;;;;;7.43;6.73;;;11.90;92.40;;;;;;5069929;28;20430;-49
2022/03/22 01:59:10;;;;;;;8.93;7.97;;;11.90;92.40;;;;;;5069507;28;20556;-47
2022/03/22 02:07:15;;;;;;;8.93;7.37;;;11.90;92.40;;;;;;5036060;28;20438;-47
2022/03/22 02:09:45;;;;;;;7.40;6.70;;;11.90;92.50;;;;;;5049910;28;20486;-50
2022/03/22 02:12:13;;;;;;;7.90;6.53;;;11.90;92.50;;;;;;5049555;28;20463;-49
2022/03/22 02:14:41;;;;;;;8.30;7.50;;;11.90;92.50;;;;;;5056555;28;20494;-49
2022/03/22 02:17:10;;;;;;;7.27;6.50;;;11.80;92.30;;;;;;5060238;28;20579;-48
2022/03/22 02:19:39;;;;;;;7.43;6.17;;;11.80;92.40;;;;;;5049453;28;21036;-49
2022/03/22 02:22:11;;;;;;;7.70;7.00;;;11.90;92.50;;;;;;5056157;28;20442;-50
2022/03/22 02:24:40;;;;;;;7.27;5.93;;;11.80;92.40;;;;;;5069140;28;20497;-46
2022/03/22 02:27:09;;;;;;;7.83;7.03;;;11.90;92.50;;;;;;5051613;28;20451;-47
2022/03/22 02:29:37;;;;;;;8.30;6.93;;;11.80;92.40;;;;;;5049674;28;20462;-48
2022/03/22 02:32:07;;;;;;;8.50;7.53;;;11.80;92.50;;;;;;5054997;28;20558;-48
2022/03/22 02:34:37;;;;;;;8.07;7.37;;;11.80;92.40;;;;;;5052909;28;20524;-49
2022/03/22 02:37:05;;;;;;;8.17;7.37;;;11.80;92.40;;;;;;5068540;28;20438;-46
2022/03/22 02:39:34;;;;;;;8.20;6.50;;;11.80;92.40;;;;;;5073070;28;20466;-49
2022/03/22 02:42:04;;;;;;;7.60;6.90;;;11.80;92.40;;;;;;5073071;28;20425;-47
2022/03/22 02:44:32;;;;;;;7.60;6.70;;;11.80;92.30;;;;;;5072742;28;20828;-49
2022/03/22 02:47:02;;;;;;;8.23;7.20;;;11.80;92.30;;;;;;5071657;28;20446;-52
2022/03/22 02:49:31;;;;;;;8.43;7.63;;;11.80;92.40;;;;;;5073919;28;20473;-50
2022/03/22 02:51:59;;;;;;;10.97;7.90;;;11.80;92.40;;;;;;5065739;28;20990;-47
2022/03/22 02:54:27;;;;;;;7.70;7.00;;;11.80;92.40;;;;;;5063680;28;20467;-49
2022/03/22 02:56:55;;;;;;;8.67;7.77;;;11.80;92.30;;;;;;5054461;28;20419;-48
2022/03/22 02:59:24;;;;;;;7.53;6.80;;;11.80;92.40;;;;;;5052768;28;20510;-48
2022/03/22 03:01:53;;;;;;;8.47;7.67;;;11.80;92.40;;;;;;5066867;28;20995;-49
2022/03/22 03:04:21;;;;;;;7.90;6.80;;;11.80;92.30;;;;;;5072511;28;20553;-47
2022/03/22 03:06:49;;;;;;;7.47;6.77;;;11.80;92.30;;;;;;5073118;28;20971;-48
2022/03/22 03:09:20;;;;;;;7.47;6.77;;;11.80;92.40;;;;;;5057047;28;20462;-47
2022/03/22 03:11:48;;;;;;;8.40;7.33;;;11.70;92.30;;;;;;5053187;28;20968;-47
2022/03/22 03:17:04;;;;;;;6.20;5.60;;;11.70;92.30;;;;;;5055817;28;20439;-47
2022/03/22 03:19:32;;;;;;;8.03;7.20;;;11.70;92.30;;;;;;5052540;28;20455;-48
2022/03/22 03:22:00;;;;;;;7.80;7.10;;;11.70;92.30;;;;;;5058541;28;20488;-47
2022/03/22 03:24:28;;;;;;;8.97;8.07;;;11.70;92.30;;;;;;5059824;28;20462;-48
2022/03/22 03:26:57;;;;;;;7.97;6.83;;;11.70;92.30;;;;;;5052923;28;20934;-47
2022/03/22 03:29:43;;;;;;;8.93;8.03;;;11.80;92.40;;;;;;5052132;28;20582;-49
2022/03/22 03:32:31;;;;;;;7.93;6.83;;;11.70;92.30;;;;;;5054351;28;20512;-48
2022/03/22 03:35:18;;;;;;;7.27;6.20;;;11.70;92.30;;;;;;5072179;28;20521;-49
2022/03/22 03:37:49;;;;;;;8.50;7.70;;;11.70;92.30;;;;;;5069923;28;20481;-46
2022/03/22 03:40:17;;;;;;;7.80;7.03;;;11.70;92.20;;;;;;5072074;28;20442;-49
2022/03/22 03:42:45;;;;;;;7.60;6.57;;;11.70;92.20;;;;;;5065459;28;21057;-49
2022/03/22 03:48:01;;;;;;;9.17;7.43;;;11.70;92.20;;;;;;5065207;28;20482;-49
2022/03/22 03:50:31;;;;;;;9.60;8.13;;;11.70;92.30;;;;;;5052308;28;20922;-48
2022/03/22 03:52:59;;;;;;;6.87;6.17;;;11.70;92.20;;;;;;5065015;28;20560;-48
2022/03/22 03:55:27;;;;;;;8.10;7.30;;;11.70;92.30;;;;;;5072124;28;20492;-50
2022/03/22 03:57:55;;;;;;;8.77;7.50;;;11.70;92.30;;;;;;5070930;28;20541;-49
2022/03/22 04:00:24;;;;;;;7.33;6.40;;;11.70;92.30;;;;;;5070723;28;20541;-50
2022/03/22 04:02:53;;;;;;;8.73;7.10;;;11.70;92.30;;;;;;5067432;28;20450;-48
2022/03/22 04:05:23;;;;;;;8.67;7.27;;;11.70;92.20;;;;;;5066924;28;20961;-48
2022/03/22 04:07:51;;;;;;;8.40;7.53;;;11.70;92.20;;;;;;5050478;28;20464;-46
2022/03/22 04:10:19;;;;;;;8.57;6.97;;;11.70;92.30;;;;;;5051859;28;20867;-48
2022/03/22 04:12:48;;;;;;;8.60;7.60;;;11.70;92.20;;;;;;5050972;28;20468;-46
2022/03/22 04:15:16;;;;;;;8.17;7.30;;;11.70;92.20;;;;;;5051718;28;20454;-48
2022/03/22 04:17:44;;;;;;;7.83;7.13;;;11.70;92.20;;;;;;5062294;28;20486;-47
2022/03/22 04:20:12;;;;;;;8.30;6.87;;;11.70;92.20;;;;;;5051857;28;20526;-48
2022/03/22 04:22:42;;;;;;;8.83;7.77;;;11.70;92.70;;;;;;5058387;28;20872;-49
2022/03/22 04:25:10;;;;;;;9.10;7.73;;;11.60;92.20;;;;;;5051243;28;20953;-48
2022/03/22 04:33:25;;;;;;;7.93;7.17;;;11.60;92.10;;;;;;5070229;28;20992;-47
2022/03/22 04:35:53;;;;;;;7.47;6.67;;;11.60;92.20;;;;;;5070981;28;20975;-47
2022/03/22 04:38:22;;;;;;;9.93;7.40;;;11.60;92.30;;;;;;5069636;28;20512;-47
2022/03/22 04:40:51;;;;;;;7.97;7.17;;;11.60;92.20;;;;;;5060654;28;20933;-49
2022/03/22 04:43:20;;;;;;;10.03;7.00;;;11.60;92.10;;;;;;5050163;28;20837;-49
2022/03/22 04:45:48;;;;;;;8.93;7.13;;;11.60;92.30;;;;;;5050902;28;20530;-47
2022/03/22 04:48:16;;;;;;;8.50;7.70;;;11.60;92.30;;;;;;5066390;28;20465;-48
2022/03/22 04:50:44;;;;;;;8.10;7.00;;;11.60;92.30;;;;;;5070583;28;20513;-46
2022/03/22 04:58:48;;;;;;;7.73;6.90;;;11.60;92.30;;;;;;5070082;28;20907;-50
2022/03/22 05:01:16;;;;;;;8.07;7.37;;;11.60;92.30;;;;;;5056602;28;20435;-47
2022/03/22 05:03:47;;;;;;;7.77;6.97;;;11.60;92.20;;;;;;5050447;28;20547;-47
2022/03/22 05:06:28;;;;;;;7.83;6.63;;;11.60;92.10;;;;;;5049316;28;20516;-49
2022/03/22 05:08:57;;;;;;;8.40;7.60;;;11.60;92.10;;;;;;5048934;28;20562;-49
2022/03/22 05:11:27;;;;;;;8.67;7.30;;;11.50;92.10;;;;;;5050932;28;20514;-49
2022/03/22 05:13:55;;;;;;;8.10;6.90;;;11.50;92.10;;;;;;5049985;28;20532;-47
2022/03/22 05:16:24;;;;;;;8.10;6.73;;;11.50;92.10;;;;;;5050965;28;20461;-48
2022/03/22 05:18:54;;;;;;;7.20;6.47;;;11.50;92.10;;;;;;5064226;28;20465;-46
2022/03/22 05:21:23;;;;;;;6.97;6.37;;;11.50;92.20;;;;;;5051223;28;20798;-48
2022/03/22 05:23:52;;;;;;;10.50;7.27;;;11.50;92.00;;;;;;5069530;28;20470;-48
2022/03/22 05:26:24;;;;;;;9.80;8.27;;;11.50;91.70;;;;;;5070374;28;20462;-46
2022/03/22 05:28:53;;;;;;;7.97;7.13;;;11.50;91.80;;;;;;5065793;28;20494;-48
2022/03/22 05:31:22;;;;;;;7.30;6.60;;;11.50;92.00;;;;;;5061592;28;20445;-47
2022/03/22 05:33:52;;;;;;;8.33;7.53;;;11.50;92.20;;;;;;5066485;28;20471;-49
2022/03/22 05:36:20;;;;;;;7.13;6.47;;;11.50;92.10;;;;;;5050338;28;20423;-49
2022/03/22 05:38:48;;;;;;;7.53;6.43;;;11.50;92.20;;;;;;5059598;28;20853;-47
2022/03/22 05:41:16;;;;;;;7.73;6.93;;;11.50;92.00;;;;;;5032767;28;20427;-50
2022/03/22 05:43:44;;;;;;;7.97;6.97;;;11.50;91.60;;;;;;5049345;28;20502;-47
2022/03/22 05:46:16;;;;;;;8.63;6.87;;;11.50;92.00;;;;;;5061598;28;20473;-47
2022/03/22 05:48:47;;;;;;;7.53;6.80;;;11.50;91.80;;;;;;5059835;28;20478;-49
2022/03/22 05:51:16;;;;;;;8.20;7.40;;;11.50;91.90;;;;;;5049942;28;20415;-49
2022/03/22 05:53:45;;;;;;;8.03;7.30;;;11.40;91.80;;;;;;5049306;28;20517;-49
2022/03/22 05:56:14;;;;;;;6.90;6.20;;;11.40;92.00;;;;;;5049995;28;20415;-49
2022/03/22 05:58:43;;;;;;;8.10;6.90;;;11.40;92.00;;;;;;5055931;28;20498;-46
2022/03/22 06:01:12;;;;;;;9.27;6.93;;;11.40;91.70;;;;;;5069585;28;20426;-48
2022/03/22 06:03:41;;;;;;;9.50;7.00;;;11.40;91.90;;;;;;5052783;28;20552;-47
2022/03/22 06:06:09;;;;;;;9.77;8.87;;;11.40;92.00;;;;;;5071506;28;20426;-49
2022/03/22 06:08:37;;;;;;;8.70;7.80;;;11.40;91.60;;;;;;5057236;28;20489;-47
2022/03/22 06:11:06;;;;;;;9.97;8.63;;;11.40;91.80;;;;;;5053898;28;20419;-50
2022/03/22 06:13:34;;;;;;;8.33;7.47;;;11.40;91.40;;;;;;5053013;28;20494;-46
2022/03/22 06:16:05;;;;;;;9.43;8.23;;;11.40;91.70;;;;;;5067225;28;20468;-47
2022/03/22 06:18:34;;;;;;;10.13;8.47;;;11.40;91.60;;;;;;5058861;28;20474;-47
2022/03/22 06:21:03;;;;;;;10.27;8.10;;;11.40;91.70;;;;;;5036402;28;20455;-48
2022/03/22 06:23:32;;;;;;;8.13;7.23;;;11.40;91.60;;;;;;5070886;28;20458;-50
2022/03/22 06:26:01;;;;;;;9.80;8.90;;;11.40;91.70;;;;;;5073132;28;20424;-48
2022/03/22 06:28:30;;;;;;;11.57;9.80;;;11.40;91.60;;;;;;5072787;28;20886;-49
2022/03/22 06:30:58;;;;;;;11.23;8.93;;;11.40;91.50;;;;;;5072953;28;20424;-47
2022/03/22 06:33:26;;;;;;;10.20;8.20;;;11.30;91.20;;;;;;5055259;28;20466;-48
2022/03/22 06:35:54;;;;;;;8.43;7.60;;;11.30;91.50;;;;;;5073238;28;20421;-47
2022/03/22 06:38:24;;;;;;;8.07;7.27;;;11.30;91.50;;;;;;5068602;28;20477;-48
2022/03/22 06:40:53;;;;;;;10.70;8.20;;;11.30;91.70;;;;;;5073994;28;20429;-49
2022/03/22 06:43:21;;;;;;;10.73;9.63;;;11.40;91.60;;;;;;5072327;28;20496;-47
2022/03/22 06:45:49;;;;;;;9.47;8.27;;;11.30;91.30;;;;;;5072346;28;20975;-45
2022/03/22 06:48:18;;;;;;;9.67;8.77;;;11.30;91.40;;;;;;5072072;28;20481;-49
2022/03/22 06:50:49;;;;;;;9.27;8.20;;;11.30;91.50;;;;;;5066721;28;20481;-49
2022/03/22 06:53:18;;;;;;;9.13;8.23;;;11.40;91.70;;;;;;5069023;28;20552;-46
2022/03/22 06:55:50;;;;;;;10.17;8.30;;;11.40;91.60;;;;;;5051768;28;20756;-50
2022/03/22 06:58:21;;;;;;;10.20;9.17;;;11.40;91.60;;;;;;5052584;28;20477;-49
2022/03/22 07:00:50;;;;;;;9.50;8.23;;;11.40;91.50;;;;;;5058694;28;20929;-48
2022/03/22 07:03:18;;;;;;;9.53;8.53;;;11.40;91.60;;;;;;5067167;28;21052;-50
2022/03/22 07:05:46;;;;;;;10.93;9.80;;;11.40;91.60;;;;;;5069131;28;20518;-49
2022/03/22 07:08:15;;;;;;;8.97;8.07;;;11.40;91.50;;;;;;5068753;28;20458;-46
2022/03/22 07:11:47;;;;;;;8.33;7.50;;;11.40;91.60;;;;;;5073172;28;20457;-47
2022/03/22 07:13:34;;;;;;;9.37;8.23;;;11.40;91.50;;;;;;5071918;28;20493;-47
2022/03/22 07:16:03;;;;;;;9.57;8.57;;;11.40;91.60;;;;;;5071776;28;20813;-47
2022/03/22 07:18:31;;;;;;;12.23;9.90;;;11.40;91.60;;;;;;5063633;28;20475;-49
2022/03/22 07:21:04;;;;;;;11.30;9.40;;;11.40;91.40;;;;;;5051151;28;20473;-49
2022/03/22 07:23:33;;;;;;;9.17;8.30;;;11.40;91.20;;;;;;5049189;28;20465;-47
2022/03/22 07:26:01;;;;;;;7.87;7.07;;;11.40;91.30;;;;;;5067197;28;20460;-47
2022/03/22 07:28:30;;;;;;;11.13;9.30;;;11.40;91.40;;;;;;5053761;28;20454;-48
2022/03/22 07:30:59;;;;;;;10.17;8.97;;;11.40;91.20;;;;;;5071860;28;20980;-51
2022/03/22 07:33:28;;;;;;;7.93;7.00;;;11.40;91.20;;;;;;5070827;28;20561;-47
2022/03/22 07:35:57;;;;;;;9.10;7.90;;;11.40;91.30;;;;;;5072047;28;20461;-46
2022/03/22 07:38:26;;;;;;;8.27;7.43;;;11.40;91.40;;;;;;5052745;28;20550;-45
2022/03/22 07:40:54;;;;;;;9.20;7.77;;;11.40;91.50;;;;;;5052060;28;20427;-48
2022/03/22 07:43:26;;;;;;;7.97;7.10;;;11.50;91.60;;;;;;5066844;28;20485;-48
2022/03/22 07:45:55;;;;;;;10.00;8.20;;;11.50;91.60;;;;;;5070883;28;20434;-48
2022/03/22 07:48:24;;;;;;;7.90;7.10;;;11.50;91.60;;;;;;5071701;28;20768;-46
2022/03/22 07:53:43;;;;;;;8.30;7.50;;;11.50;91.70;;;;;;5069535;28;20508;-46
2022/03/22 07:56:12;;;;;;;10.73;8.60;;;11.50;91.70;;;;;;5056640;28;20443;-49
2022/03/22 07:58:41;;;;;;;12.77;11.30;;;11.50;92.20;;;;;;5067684;28;20482;-48
2022/03/22 08:01:09;;;;;;;10.67;9.50;;;11.50;91.70;;;;;;5059334;28;20851;-46
2022/03/22 08:03:39;;;;;;;14.40;11.40;;;11.60;91.50;;;;;;5070089;28;20478;-48
2022/03/22 08:06:08;;;;;;;14.53;12.97;;;11.70;91.00;;;;;;5071351;28;20481;-47
2022/03/22 08:08:37;;;;;;;19.77;14.80;;;11.80;91.00;;;;;;5053824;28;20510;-46
2022/03/22 08:11:06;;;;;;;14.13;11.90;;;11.80;90.60;;;;;;5062004;28;20836;-45
2022/03/22 08:13:35;;;;;;;17.50;13.33;;;11.90;90.40;;;;;;5064639;28;21952;-48
2022/03/22 08:16:03;;;;;;;17.13;13.83;;;12.00;90.20;;;;;;5050199;28;20438;-46
2022/03/22 08:18:32;;;;;;;17.93;13.00;;;12.00;90.10;;;;;;5050579;28;20502;-48
2022/03/22 08:21:01;;;;;;;17.53;13.87;;;12.10;88.90;;;;;;5071126;28;20500;-49
2022/03/22 08:23:30;;;;;;;18.00;12.87;;;12.10;89.10;;;;;;5069559;28;20466;-49
2022/03/22 08:25:58;;;;;;;17.43;14.87;;;12.20;87.40;;;;;;5070585;28;20439;-46
2022/03/22 08:28:29;;;;;;;20.20;14.90;;;12.20;86.80;;;;;;5070295;28;20473;-46
2022/03/22 08:30:58;;;;;;;17.73;14.00;;;12.30;86.50;;;;;;5070414;28;20440;-46
2022/03/22 08:33:26;;;;;;;22.70;15.07;;;12.30;86.40;;;;;;5068163;28;20474;-48
2022/03/22 08:35:54;;;;;;;18.60;15.00;;;12.30;85.60;;;;;;5068178;28;20438;-45
2022/03/22 08:38:24;;;;;;;17.07;14.10;;;12.40;86.90;;;;;;5050103;28;20991;-44
2022/03/22 08:40:54;;;;;;;16.47;13.93;;;12.40;85.70;;;;;;5051462;28;20431;-48
2022/03/22 08:43:25;;;;;;;21.40;15.60;;;12.40;85.10;;;;;;5051007;28;20820;-46
2022/03/22 08:45:54;;;;;;;17.23;14.30;;;12.40;84.20;;;;;;5062383;28;20447;-47
2022/03/22 08:48:22;;;;;;;18.63;14.23;;;12.50;83.60;;;;;;5070918;28;20571;-48
2022/03/22 08:50:52;;;;;;;19.20;14.57;;;12.50;83.20;;;;;;5071539;28;20517;-49
2022/03/22 08:53:23;;;;;;;15.93;13.70;;;12.50;82.60;;;;;;5050146;28;20531;-47
2022/03/22 08:55:53;;;;;;;21.07;13.10;;;12.50;83.00;;;;;;5070612;28;20492;-48
2022/03/22 08:58:21;;;;;;;18.80;14.90;;;12.50;83.10;;;;;;5070590;28;20507;-47
2022/03/22 09:00:50;;;;;;;16.57;14.50;;;12.50;82.40;;;;;;5070822;28;20445;-47
2022/03/22 09:03:19;;;;;;;20.27;14.93;;;12.60;82.70;;;;;;5069363;28;20512;-47
2022/03/22 09:08:38;;;;;;;23.90;15.57;;;12.50;82.30;;;;;;5068842;28;20467;-47
2022/03/22 09:11:07;;;;;;;18.23;13.93;;;12.60;81.30;;;;;;5062388;28;20878;-48
2022/03/22 09:13:39;;;;;;;20.47;14.30;;;12.50;81.40;;;;;;5049828;28;20545;-46
2022/03/22 09:16:13;;;;;;;20.60;15.47;;;12.50;81.50;;;;;;5057101;28;20975;-48
2022/03/22 09:18:41;;;;;;;19.90;15.33;;;12.50;80.90;;;;;;5050033;28;20462;-49
2022/03/22 09:21:10;;;;;;;16.00;14.30;;;12.50;81.10;;;;;;5050544;28;20458;-48
2022/03/22 09:23:41;;;;;;;15.97;14.37;;;12.50;81.10;;;;;;5069126;28;21018;-47
2022/03/22 09:26:09;;;;;;;16.30;14.60;;;12.50;81.30;;;;;;5067381;28;20438;-49
2022/03/22 09:28:38;;;;;;;20.03;14.10;;;12.50;81.10;;;;;;5068339;28;20468;-46
2022/03/22 09:31:09;;;;;;;18.60;15.63;;;12.50;80.90;;;;;;5069359;28;20427;-46
2022/03/22 09:33:38;;;;;;;19.50;14.60;;;12.50;80.60;;;;;;5055933;28;20463;-47
2022/03/22 09:36:07;;;;;;;17.90;14.70;;;12.50;80.80;;;;;;5050228;28;20460;-46
2022/03/22 09:38:37;;;;;;;17.70;14.87;;;12.50;81.90;;;;;;5054614;28;20803;-48
2022/03/22 09:41:08;;;;;;;18.13;13.50;;;12.50;80.40;;;;;;5050140;28;20919;-48
2022/03/22 09:43:38;;;;;;;18.23;14.63;;;12.50;80.60;;;;;;5049211;28;20563;-48
2022/03/22 09:46:09;;;;;;;19.13;14.73;;;12.50;80.80;;;;;;5055063;28;20553;-46
2022/03/22 09:48:38;;;;;;;17.70;14.33;;;12.50;80.60;;;;;;5069452;28;20489;-46
2022/03/22 09:53:53;;;;;;;17.47;14.47;;;12.50;80.20;;;;;;5049543;28;20464;-46
2022/03/22 09:56:25;;;;;;;18.40;14.70;;;12.50;79.60;;;;;;5065091;28;20466;-46
2022/03/22 09:58:54;;;;;;;18.03;14.27;;;12.50;79.40;;;;;;5069842;28;20455;-47
2022/03/22 10:01:22;;;;;;;19.10;14.33;;;12.50;78.60;;;;;;5062854;28;20527;-48
2022/03/22 10:03:58;;;;;;;18.77;14.70;;;12.50;78.70;;;;;;5049853;28;20896;-48
2022/03/22 10:06:26;;;;;;;17.67;14.90;;;12.50;78.40;;;;;;5061807;28;20485;-47
2022/03/22 10:08:55;;;;;;;18.93;14.13;;;12.50;78.40;;;;;;5069058;28;20455;-46
2022/03/22 10:11:35;;;;;;;15.77;13.00;;;12.50;77.40;;;;;;5056389;28;20493;-48
2022/03/22 10:14:08;;;;;;;16.43;13.27;;;12.50;78.60;;;;;;5049138;28;20465;-47
2022/03/22 10:16:46;;;;;;;17.43;13.67;;;12.50;77.20;;;;;;5039564;28;20473;-47
2022/03/22 10:19:22;;;;;;;14.97;13.10;;;12.50;77.10;;;;;;5063591;28;20489;-47
2022/03/22 10:21:50;;;;;;;18.33;13.53;;;12.50;76.50;;;;;;5054353;28;20444;-45
2022/03/22 10:24:19;;;;;;;14.60;12.97;;;12.50;76.00;;;;;;5068865;28;20710;-47
2022/03/22 10:26:48;;;;;;;17.43;13.60;;;12.50;75.10;;;;;;5053160;28;20782;-46
2022/03/22 10:29:18;;;;;;;15.47;13.77;;;12.50;74.30;;;;;;5049305;28;20498;-47
2022/03/22 10:31:46;;;;;;;13.53;11.13;;;12.50;73.60;;;;;;5061947;28;20934;-45
2022/03/22 10:34:16;;;;;;;14.50;12.40;;;12.50;73.50;;;;;;5065815;28;20471;-46
2022/03/22 10:36:44;;;;;;;15.80;12.97;;;12.50;72.80;;;;;;5063162;28;22125;-46
2022/03/22 10:39:13;;;;;;;13.70;11.47;;;12.50;72.80;;;;;;5069123;28;20589;-45
2022/03/22 10:41:43;;;;;;;17.50;14.37;;;12.50;71.50;;;;;;5040928;28;20427;-46
2022/03/22 10:44:15;;;;;;;16.83;12.10;;;12.50;71.30;;;;;;5064492;28;20486;-44
2022/03/22 10:46:44;;;;;;;18.30;13.03;;;12.50;69.70;;;;;;5069019;28;20440;-44
2022/03/22 10:49:14;;;;;;;14.93;11.27;;;12.50;70.20;;;;;;5036677;28;20488;-45
2022/03/22 10:51:46;;;;;;;13.60;10.37;;;12.50;68.30;;;;;;5057891;28;20452;-47
2022/03/22 10:54:17;;;;;;;12.10;10.80;;;12.50;67.40;;;;;;5072102;28;20465;-48
2022/03/22 10:56:48;;;;;;;12.70;11.40;;;12.50;67.50;;;;;;5070817;28;20457;-49
2022/03/22 10:59:19;;;;;;;13.47;10.67;;;12.50;69.80;;;;;;5069873;28;20498;-50
2022/03/22 11:01:49;;;;;;;13.23;11.93;;;12.40;70.40;;;;;;5064805;28;20516;-48
2022/03/22 11:04:19;;;;;;;11.53;10.23;;;12.40;70.50;;;;;;5061094;28;20834;-47
2022/03/22 11:06:48;;;;;;;12.87;11.30;;;12.30;71.00;;;;;;5054542;28;20439;-48
2022/03/22 11:09:20;;;;;;;14.50;11.27;;;12.30;71.30;;;;;;5054153;28;20478;-49
2022/03/22 11:11:50;;;;;;;11.47;9.10;;;12.20;72.10;;;;;;5073525;28;20471;-49
2022/03/22 11:14:20;;;;;;;12.60;9.93;;;12.20;72.70;;;;;;5057199;28;20475;-48
2022/03/22 11:16:50;;;;;;;12.17;10.47;;;12.20;72.70;;;;;;5053934;28;20463;-50
2022/03/22 11:19:22;;;;;;;13.33;9.70;;;12.20;73.30;;;;;;5064301;28;20474;-48
2022/03/22 11:21:50;;;;;;;10.37;9.27;;;12.10;73.80;;;;;;5072344;28;20438;-47
2022/03/22 11:24:25;;;;;;;11.60;9.00;;;12.10;74.40;;;;;;5071712;28;20470;-48
2022/03/22 11:26:55;;;;;;;14.97;9.20;;;12.10;74.80;;;;;;5054153;28;20487;-48
2022/03/22 11:29:26;;;;;;;11.83;9.07;;;12.10;74.90;;;;;;5055789;28;20531;-48
2022/03/22 11:34:42;;;;;;;11.30;8.70;;;12.00;75.40;;;;;;5064244;28;20474;-46
2022/03/22 11:37:11;;;;;;;8.80;8.00;;;12.00;75.60;;;;;;5071403;28;20465;-46
2022/03/22 11:42:26;;;;;;;11.90;8.60;;;12.00;75.70;;;;;;5072041;28;20446;-48
2022/03/22 11:45:00;;;;;;;10.33;8.20;;;12.00;76.10;;;;;;5070085;28;20516;-47
2022/03/22 11:47:39;;;;;;;9.27;7.57;;;12.00;76.40;;;;;;5072178;28;20426;-47
2022/03/22 11:50:09;;;;;;;11.47;7.87;;;12.00;76.50;;;;;;5053555;28;20457;-48
2022/03/22 11:52:40;;;;;;;10.97;7.07;;;12.00;76.70;;;;;;5062898;28;20541;-47
2022/03/22 11:55:10;;;;;;;10.13;7.93;;;12.00;76.80;;;;;;5069751;28;20554;-46
2022/03/22 11:57:42;;;;;;;9.17;7.00;;;12.00;77.00;;;;;;5071253;28;20430;-48
2022/03/22 12:00:14;;;;;;;9.70;7.43;;;12.00;77.30;;;;;;5071872;28;20508;-47
2022/03/22 12:02:45;;;;;;;8.80;7.20;;;12.00;77.40;;;;;;5064538;28;20510;-47
2022/03/22 12:05:17;;;;;;;8.60;7.47;;;12.00;77.30;;;;;;5051525;28;20427;-47
2022/03/22 12:07:47;;;;;;;8.17;6.90;;;12.00;77.20;;;;;;5057308;28;20443;-48
2022/03/22 12:10:18;;;;;;;8.80;6.80;;;12.00;77.30;;;;;;5051821;28;20431;-47
2022/03/22 12:12:49;;;;;;;10.00;7.03;;;12.00;77.70;;;;;;5051243;28;20549;-49
2022/03/22 12:15:20;;;;;;;7.40;6.67;;;12.00;77.90;;;;;;5059925;28;20500;-49
2022/03/22 12:17:49;;;;;;;8.40;7.60;;;12.00;77.90;;;;;;5062608;28;20450;-46
2022/03/22 12:20:19;;;;;;;9.10;6.50;;;12.00;77.80;;;;;;5052290;28;20422;-49
2022/03/22 12:22:50;;;;;;;8.77;7.87;;;12.00;77.80;;;;;;5051235;28;20978;-49
2022/03/22 12:25:20;;;;;;;7.50;6.40;;;12.00;72.40;;;;;;5060493;28;20492;-48
2022/03/22 12:27:53;;;;;;;6.53;5.87;;;12.00;73.10;;;;;;5052602;28;20442;-47
2022/03/22 12:30:25;;;;;;;7.30;6.50;;;12.00;74.00;;;;;;5058762;28;20454;-47
2022/03/22 12:32:54;;;;;;;12.80;6.63;;;12.00;73.30;;;;;;5057758;28;20462;-48
2022/03/22 12:35:23;;;;;;;8.93;6.80;;;12.10;73.40;;;;;;5058298;28;20431;-48
2022/03/22 12:37:53;;;;;;;10.90;6.13;;;12.10;73.00;;;;;;5063169;28;20973;-48
2022/03/22 12:40:23;;;;;;;9.10;6.57;;;12.10;73.70;;;;;;5060131;28;20438;-48
2022/03/22 12:42:52;;;;;;;8.30;6.67;;;12.10;73.40;;;;;;5053149;28;20537;-46
2022/03/22 12:45:23;;;;;;;7.53;6.73;;;12.10;73.10;;;;;;5058699;28;20441;-49
2022/03/22 12:47:52;;;;;;;12.03;6.10;;;12.00;73.30;;;;;;5063294;28;20422;-46
2022/03/22 12:50:21;;;;;;;6.40;5.80;;;12.00;73.60;;;;;;5071414;28;20979;-47
2022/03/22 12:52:51;;;;;;;8.30;6.60;;;12.10;73.70;;;;;;5065068;28;20862;-46
2022/03/22 12:55:22;;;;;;;7.50;5.60;;;12.00;74.10;;;;;;5060104;28;20492;-47
2022/03/22 12:57:56;;;;;;;8.63;5.87;;;12.10;74.30;;;;;;5050430;28;20782;-46
2022/03/22 13:00:31;;;;;;;7.30;5.83;;;12.10;74.90;;;;;;5058757;28;20541;-46
2022/03/22 13:03:07;;;;;;;8.40;6.00;;;12.10;75.00;;;;;;5067220;28;20457;-48
2022/03/22 13:05:41;;;;;;;7.50;6.10;;;12.10;74.80;;;;;;5051981;28;20462;-46
2022/03/22 13:08:20;;;;;;;6.97;6.23;;;12.10;75.20;;;;;;5036918;28;20463;-46
2022/03/22 13:16:28;;;;;;;7.33;5.67;;;12.10;74.90;;;;;;5065673;28;20999;-50
2022/03/22 13:18:58;;;;;;;7.20;5.60;;;12.10;75.10;;;;;;5062579;28;20525;-47
2022/03/22 13:21:30;;;;;;;6.30;5.43;;;12.10;75.30;;;;;;5062252;28;20492;-48
2022/03/22 13:24:03;;;;;;;9.23;5.80;;;12.10;75.30;;;;;;5052584;28;20475;-48
2022/03/22 13:26:32;;;;;;;7.00;6.30;;;12.10;75.60;;;;;;5061062;28;20422;-48
2022/03/22 13:29:13;;;;;;;5.97;5.23;;;12.10;75.20;;;;;;5049215;28;20475;-48
2022/03/22 13:31:56;;;;;;;6.67;6.00;;;12.10;76.30;;;;;;5068614;28;20500;-49
2022/03/22 13:34:31;;;;;;;10.10;7.03;;;12.10;75.70;;;;;;5059163;28;20474;-48
2022/03/22 13:37:07;;;;;;;7.60;6.93;;;12.20;73.10;;;;;;5056644;28;21044;-48
2022/03/22 13:39:36;;;;;;;7.00;5.90;;;12.20;72.60;;;;;;5069935;28;20488;-49